Time;durP1;ratioP1;P1;durP2;ratioP2;P2;SDS_P1;SDS_P2;PMS_P1;PMS_P2;Temp;Humidity;BMP_temperature;BMP_pressure;BME280_temperature;BME280_humidity;BME280_pressure;Samples;Min_cycle;Max_cycle;Signal;HPM_P1;HPM_P2
2021/07/25 00:01:18;;;;;;;13.03;10.43;;;23.30;99.90;;;;;;5025247;28;20429;-81
2021/07/25 00:03:46;;;;;;;13.20;11.90;;;23.30;99.90;;;;;;5030208;28;20429;-84
2021/07/25 00:06:32;;;;;;;12.40;11.10;;;23.30;99.90;;;;;;5002786;28;20431;-83
2021/07/25 00:09:01;;;;;;;14.17;12.67;;;23.30;99.90;;;;;;5026432;28;20520;-82
2021/07/25 00:11:29;;;;;;;16.67;12.63;;;23.20;99.90;;;;;;5029620;28;20479;-81
2021/07/25 00:14:02;;;;;;;15.37;11.23;;;23.20;99.90;;;;;;5015697;28;20473;-80
2021/07/25 00:16:31;;;;;;;11.93;10.60;;;23.10;99.90;;;;;;5032928;28;20571;-81
2021/07/25 00:18:59;;;;;;;14.50;13.00;;;23.10;99.90;;;;;;5032727;28;20454;-80
2021/07/25 00:21:28;;;;;;;11.80;10.57;;;23.00;99.90;;;;;;5025762;28;20448;-81
2021/07/25 00:23:59;;;;;;;14.10;12.60;;;23.00;99.90;;;;;;5026037;28;20425;-80
2021/07/25 00:26:33;;;;;;;12.20;10.90;;;22.90;99.90;;;;;;5036334;28;20411;-79
2021/07/25 00:29:01;;;;;;;13.67;11.97;;;22.80;99.90;;;;;;5036669;28;20388;-79
2021/07/25 00:31:29;;;;;;;13.33;11.70;;;22.70;99.90;;;;;;5037031;28;20417;-77
2021/07/25 00:33:57;;;;;;;13.03;10.43;;;22.70;99.90;;;;;;5037184;28;20437;-78
2021/07/25 00:36:27;;;;;;;13.53;11.43;;;22.70;99.90;;;;;;5033638;28;20563;-78
2021/07/25 00:38:57;;;;;;;13.63;12.23;;;22.60;99.90;;;;;;5033859;28;20424;-79
2021/07/25 00:41:25;;;;;;;13.70;10.97;;;22.50;99.90;;;;;;5034704;28;20429;-78
2021/07/25 00:43:53;;;;;;;14.93;11.53;;;22.40;99.90;;;;;;5035044;28;20436;-80
2021/07/25 00:46:21;;;;;;;13.13;11.77;;;22.30;99.90;;;;;;5034529;28;20469;-80
2021/07/25 00:48:49;;;;;;;18.23;12.63;;;22.30;99.90;;;;;;5017531;28;20782;-80
2021/07/25 00:51:17;;;;;;;13.23;11.70;;;22.20;99.90;;;;;;5034858;28;20876;-80
2021/07/25 00:53:48;;;;;;;13.37;11.60;;;22.20;99.90;;;;;;5034613;28;20403;-80
2021/07/25 00:56:17;;;;;;;13.63;11.87;;;22.20;99.90;;;;;;5034580;28;20451;-79
2021/07/25 00:58:45;;;;;;;18.17;12.10;;;22.10;99.90;;;;;;5018432;28;20420;-83
2021/07/25 01:01:14;;;;;;;13.60;12.20;;;22.10;99.90;;;;;;5022054;28;20441;-82
2021/07/25 01:04:05;;;;;;;14.30;11.67;;;22.10;99.90;;;;;;5002800;28;20532;-84
2021/07/25 01:06:47;;;;;;;15.07;11.50;;;22.00;99.90;;;;;;5017088;28;20428;-81
2021/07/25 01:09:20;;;;;;;15.00;11.97;;;22.00;99.90;;;;;;5018091;28;20425;-82
2021/07/25 01:11:55;;;;;;;13.73;12.00;;;22.00;99.90;;;;;;5017561;28;20432;-80
2021/07/25 01:14:27;;;;;;;14.03;11.63;;;21.90;99.90;;;;;;5019579;28;20461;-82
2021/07/25 01:17:25;;;;;;;14.90;11.87;;;21.80;99.90;;;;;;5020725;28;20477;-81
2021/07/25 01:19:55;;;;;;;13.97;12.47;;;21.80;99.90;;;;;;5018392;28;20455;-83
2021/07/25 01:22:25;;;;;;;14.57;12.40;;;21.80;99.90;;;;;;5022143;28;20440;-83
2021/07/25 01:24:53;;;;;;;14.30;12.40;;;21.70;99.90;;;;;;5021653;28;20421;-83
2021/07/25 01:27:32;;;;;;;14.50;12.27;;;21.60;99.90;;;;;;5021484;28;20467;-81
2021/07/25 01:30:02;;;;;;;13.67;11.57;;;21.60;99.90;;;;;;5021165;28;20449;-83
2021/07/25 01:32:32;;;;;;;19.20;13.13;;;21.60;99.90;;;;;;5021406;28;20429;-83
2021/07/25 01:35:03;;;;;;;15.03;12.90;;;21.50;99.90;;;;;;5021592;28;20428;-83
2021/07/25 01:37:32;;;;;;;12.77;11.07;;;21.50;99.90;;;;;;5025097;28;20472;-82
2021/07/25 01:40:00;;;;;;;15.73;12.17;;;21.50;99.90;;;;;;5004080;28;20928;-82
2021/07/25 01:42:30;;;;;;;12.70;11.40;;;21.50;99.90;;;;;;5022757;28;20442;-83
2021/07/25 01:44:59;;;;;;;17.00;11.90;;;21.50;99.90;;;;;;5023013;28;20890;-83
2021/07/25 01:47:29;;;;;;;16.07;12.60;;;21.40;99.90;;;;;;5021954;28;20431;-82
2021/07/25 01:49:57;;;;;;;13.47;12.10;;;21.40;99.90;;;;;;5022541;28;20428;-83
2021/07/25 01:52:27;;;;;;;13.87;11.30;;;21.40;99.90;;;;;;5024377;28;20419;-78
2021/07/25 01:54:55;;;;;;;13.27;11.87;;;21.30;99.90;;;;;;5034436;28;20889;-78
2021/07/25 01:57:23;;;;;;;14.60;12.77;;;21.20;99.90;;;;;;5034224;28;20515;-78
2021/07/25 01:59:51;;;;;;;13.50;11.90;;;21.20;99.90;;;;;;5036466;28;20471;-82
2021/07/25 02:02:19;;;;;;;13.80;12.20;;;21.20;99.90;;;;;;5032135;28;20443;-80
2021/07/25 02:04:48;;;;;;;15.93;13.57;;;21.10;99.90;;;;;;5028116;28;20420;-82
2021/07/25 02:07:16;;;;;;;15.90;12.20;;;21.10;99.90;;;;;;5022593;28;20438;-83
2021/07/25 02:09:46;;;;;;;12.03;10.80;;;21.10;99.90;;;;;;5023388;28;20403;-82
2021/07/25 02:12:14;;;;;;;12.17;10.90;;;21.10;99.90;;;;;;5021970;28;20408;-81
2021/07/25 02:14:42;;;;;;;12.83;10.90;;;21.10;99.90;;;;;;5018947;28;20404;-82
2021/07/25 02:17:10;;;;;;;17.87;12.43;;;21.10;99.90;;;;;;5024768;28;20440;-81
2021/07/25 02:19:38;;;;;;;15.07;13.00;;;21.10;99.90;;;;;;5025942;28;20415;-82
2021/07/25 02:22:06;;;;;;;12.70;11.10;;;21.10;99.90;;;;;;5025592;28;20418;-81
2021/07/25 02:24:34;;;;;;;14.30;12.87;;;21.10;99.90;;;;;;5026053;28;20892;-82
2021/07/25 02:27:04;;;;;;;15.03;11.77;;;21.10;99.90;;;;;;5017893;28;20450;-81
2021/07/25 02:29:32;;;;;;;15.33;13.73;;;21.10;99.90;;;;;;5018089;28;20420;-79
2021/07/25 02:32:01;;;;;;;15.13;12.83;;;21.10;99.90;;;;;;5016483;28;20418;-81
2021/07/25 02:34:29;;;;;;;14.43;12.20;;;21.10;99.90;;;;;;5017203;28;20472;-81
2021/07/25 02:36:57;;;;;;;12.60;10.83;;;21.00;99.90;;;;;;5016434;28;20444;-81
2021/07/25 02:39:25;;;;;;;13.97;12.43;;;21.00;99.90;;;;;;5016648;28;20392;-82
2021/07/25 02:41:54;;;;;;;15.70;12.53;;;21.00;99.90;;;;;;5016528;28;20498;-82
2021/07/25 02:44:23;;;;;;;14.73;12.17;;;21.00;99.90;;;;;;4998383;28;20487;-82
2021/07/25 02:46:51;;;;;;;15.13;11.93;;;20.90;99.90;;;;;;5014751;28;20432;-82
2021/07/25 02:49:19;;;;;;;15.60;12.07;;;20.90;99.90;;;;;;5015829;28;20459;-81
2021/07/25 02:51:47;;;;;;;14.10;11.00;;;20.80;99.90;;;;;;5016193;28;20408;-83
2021/07/25 02:54:15;;;;;;;14.07;12.07;;;20.80;99.90;;;;;;5019752;28;20771;-83
2021/07/25 02:56:44;;;;;;;15.80;12.07;;;20.80;99.90;;;;;;5020120;28;20499;-83
2021/07/25 02:59:12;;;;;;;14.83;11.47;;;20.80;99.90;;;;;;5018939;28;20440;-83
2021/07/25 03:01:41;;;;;;;15.87;12.70;;;20.70;99.90;;;;;;5021882;28;20403;-82
2021/07/25 03:04:10;;;;;;;14.43;12.90;;;20.70;99.90;;;;;;5020617;28;20409;-81
2021/07/25 03:06:38;;;;;;;12.57;11.27;;;20.60;99.90;;;;;;5021483;28;20489;-83
2021/07/25 03:09:06;;;;;;;15.33;11.83;;;20.60;99.90;;;;;;5009927;28;20404;-83
2021/07/25 03:11:34;;;;;;;14.07;11.60;;;20.60;99.90;;;;;;5020007;28;20408;-82
2021/07/25 03:14:02;;;;;;;15.27;12.77;;;20.50;99.90;;;;;;5020324;28;20505;-82
2021/07/25 03:16:30;;;;;;;14.47;12.03;;;20.50;99.90;;;;;;5020058;28;20420;-82
2021/07/25 03:19:00;;;;;;;17.33;13.07;;;20.50;99.90;;;;;;5025472;28;20951;-82
2021/07/25 03:21:28;;;;;;;15.70;13.00;;;20.50;99.90;;;;;;5025436;28;20400;-83
2021/07/25 03:23:57;;;;;;;16.07;13.07;;;20.50;99.90;;;;;;5019287;28;20483;-82
2021/07/25 03:26:28;;;;;;;13.83;12.00;;;20.40;99.90;;;;;;5020244;28;20484;-83
2021/07/25 03:28:56;;;;;;;17.20;12.60;;;20.40;99.90;;;;;;5020325;28;20408;-82
2021/07/25 03:31:24;;;;;;;12.70;10.60;;;20.50;99.90;;;;;;5021118;28;20421;-83
2021/07/25 03:33:53;;;;;;;19.03;13.30;;;20.40;99.90;;;;;;5026517;28;20417;-83
2021/07/25 03:36:24;;;;;;;14.80;12.33;;;20.40;99.90;;;;;;5026176;28;20436;-84
2021/07/25 03:38:52;;;;;;;15.03;13.43;;;20.40;99.90;;;;;;5029223;28;20797;-83
2021/07/25 03:41:20;;;;;;;16.00;13.10;;;20.40;99.90;;;;;;5029252;28;20411;-82
2021/07/25 03:43:48;;;;;;;13.60;12.10;;;20.40;99.90;;;;;;5027934;28;20411;-83
2021/07/25 03:46:17;;;;;;;17.53;12.33;;;20.40;99.90;;;;;;5029170;28;20415;-82
2021/07/25 03:48:45;;;;;;;17.13;13.73;;;20.40;99.90;;;;;;5027300;28;20427;-82
2021/07/25 03:51:13;;;;;;;14.00;12.40;;;20.40;99.90;;;;;;5019988;28;20883;-83
2021/07/25 03:53:43;;;;;;;20.60;13.37;;;20.40;99.90;;;;;;5019295;28;21009;-81
2021/07/25 03:56:11;;;;;;;15.00;13.23;;;20.40;99.90;;;;;;5022459;28;20499;-82
2021/07/25 03:58:39;;;;;;;16.60;13.33;;;20.40;99.90;;;;;;5021802;28;20962;-80
2021/07/25 04:01:07;;;;;;;15.70;13.57;;;20.40;99.90;;;;;;5024275;28;20399;-81
2021/07/25 04:03:37;;;;;;;14.57;13.10;;;20.40;99.90;;;;;;5032618;28;20409;-79
2021/07/25 04:06:05;;;;;;;16.33;12.97;;;20.50;99.90;;;;;;5036414;28;20431;-77
2021/07/25 04:08:34;;;;;;;16.10;11.20;;;20.50;99.90;;;;;;5037413;28;20449;-77
2021/07/25 04:11:04;;;;;;;16.80;14.00;;;20.60;99.90;;;;;;5037469;28;20387;-79
2021/07/25 04:13:32;;;;;;;15.57;12.20;;;20.60;99.90;;;;;;5036806;28;20460;-76
2021/07/25 04:16:00;;;;;;;15.77;13.10;;;20.60;99.90;;;;;;5020270;28;20403;-78
2021/07/25 04:18:29;;;;;;;13.80;12.40;;;20.60;99.90;;;;;;5037052;28;20465;-77
2021/07/25 04:20:57;;;;;;;16.47;13.80;;;20.60;99.90;;;;;;5037234;28;20392;-76
2021/07/25 04:23:25;;;;;;;16.43;14.43;;;20.60;99.90;;;;;;5037197;28;20423;-78
2021/07/25 04:25:53;;;;;;;15.10;12.37;;;20.60;99.90;;;;;;5037206;28;20408;-79
2021/07/25 04:28:23;;;;;;;15.00;12.50;;;20.60;99.90;;;;;;5025716;28;20404;-82
2021/07/25 04:30:52;;;;;;;16.20;12.73;;;20.60;99.90;;;;;;5030020;28;20372;-82
2021/07/25 04:33:21;;;;;;;14.20;12.80;;;20.70;99.90;;;;;;5032554;28;20403;-79
2021/07/25 04:35:50;;;;;;;15.33;12.40;;;20.90;99.90;;;;;;5032376;28;20435;-80
2021/07/25 04:38:19;;;;;;;15.83;13.20;;;21.00;99.90;;;;;;5032100;28;20593;-80
2021/07/25 04:40:52;;;;;;;16.30;13.50;;;21.00;99.90;;;;;;5033575;28;20377;-80
2021/07/25 04:43:28;;;;;;;13.87;12.00;;;21.00;99.90;;;;;;5033116;28;20436;-81
2021/07/25 04:46:02;;;;;;;15.43;14.00;;;21.10;99.90;;;;;;5031134;28;20403;-81
2021/07/25 04:48:33;;;;;;;18.90;12.80;;;21.20;99.90;;;;;;5026238;28;20413;-84
2021/07/25 04:51:06;;;;;;;14.00;12.10;;;21.30;99.90;;;;;;5018346;28;20809;-81
2021/07/25 04:53:38;;;;;;;13.63;12.33;;;21.40;99.90;;;;;;5019509;28;20426;-82
2021/07/25 04:56:09;;;;;;;13.83;12.53;;;21.40;99.90;;;;;;5019633;28;20457;-82
2021/07/25 04:58:45;;;;;;;15.60;12.80;;;21.30;99.90;;;;;;5022561;28;20465;-82
2021/07/25 05:01:16;;;;;;;14.80;13.13;;;21.20;99.90;;;;;;5021267;28;20442;-84
2021/07/25 05:03:46;;;;;;;12.53;11.17;;;21.20;99.90;;;;;;5022126;28;20408;-83
2021/07/25 05:06:15;;;;;;;13.13;11.83;;;21.10;99.90;;;;;;5022185;28;20435;-79
2021/07/25 05:08:44;;;;;;;14.90;13.27;;;21.10;99.90;;;;;;5017403;28;20403;-79
2021/07/25 05:11:17;;;;;;;17.00;13.80;;;21.10;99.90;;;;;;5016064;28;20435;-79
2021/07/25 05:13:49;;;;;;;16.20;13.47;;;21.20;99.90;;;;;;5017303;28;20396;-80
2021/07/25 05:16:26;;;;;;;15.20;12.70;;;21.40;99.90;;;;;;5017025;28;20423;-80
2021/07/25 05:19:17;;;;;;;14.20;12.10;;;21.80;99.90;;;;;;5015787;28;20542;-78
2021/07/25 05:21:58;;;;;;;17.50;13.10;;;22.90;99.90;;;;;;5016251;28;20425;-78
2021/07/25 05:24:32;;;;;;;13.53;11.87;;;23.70;99.90;;;;;;5016552;28;20409;-80
2021/07/25 05:27:02;;;;;;;13.53;12.13;;;23.40;99.90;;;;;;5017216;28;20974;-79
2021/07/25 05:29:34;;;;;;;14.67;12.30;;;23.00;99.90;;;;;;5017125;28;20431;-79
2021/07/25 05:32:02;;;;;;;13.53;12.13;;;22.80;99.90;;;;;;5017926;28;20431;-78
2021/07/25 05:34:30;;;;;;;14.77;12.57;;;23.00;99.90;;;;;;5020891;28;20387;-77
2021/07/25 05:36:58;;;;;;;20.10;13.20;;;23.60;99.90;;;;;;5017289;28;20445;-80
2021/07/25 05:39:26;;;;;;;15.07;13.57;;;23.70;99.90;;;;;;5016465;28;20460;-78
2021/07/25 05:41:54;;;;;;;18.13;14.47;;;23.50;99.90;;;;;;5016099;28;20421;-79
2021/07/25 05:44:22;;;;;;;14.80;12.70;;;23.50;99.90;;;;;;5016173;28;20440;-79
2021/07/25 05:46:52;;;;;;;16.07;13.17;;;23.50;99.90;;;;;;5016997;28;20475;-79
2021/07/25 05:49:20;;;;;;;13.77;12.30;;;23.70;99.90;;;;;;5018136;28;20404;-79
2021/07/25 05:51:48;;;;;;;16.37;14.67;;;23.70;99.90;;;;;;5018819;28;20990;-78
2021/07/25 05:54:16;;;;;;;14.00;12.50;;;23.90;99.90;;;;;;5024979;28;20421;-80
2021/07/25 05:56:44;;;;;;;14.53;12.43;;;23.90;99.90;;;;;;5026591;28;20441;-80
2021/07/25 05:59:13;;;;;;;16.10;13.37;;;24.00;99.90;;;;;;5021943;28;20846;-80
2021/07/25 06:01:41;;;;;;;13.30;12.03;;;24.10;99.90;;;;;;5029354;28;20409;-80
2021/07/25 06:04:10;;;;;;;15.10;13.50;;;24.10;99.90;;;;;;5024055;28;20424;-79
2021/07/25 06:06:39;;;;;;;14.77;12.53;;;24.20;99.90;;;;;;5024489;28;20998;-80
2021/07/25 06:09:07;;;;;;;16.00;13.27;;;24.30;99.90;;;;;;5026537;28;20945;-80
2021/07/25 06:11:36;;;;;;;14.20;11.47;;;24.40;99.90;;;;;;5027424;28;20440;-79
2021/07/25 06:14:04;;;;;;;15.47;13.23;;;24.50;99.90;;;;;;5030218;28;20392;-80
2021/07/25 06:16:32;;;;;;;14.57;12.93;;;24.80;99.90;;;;;;5028041;28;20504;-79
2021/07/25 06:19:00;;;;;;;14.33;12.90;;;24.80;99.90;;;;;;5019553;28;21057;-77
2021/07/25 06:21:30;;;;;;;14.60;13.10;;;24.80;99.90;;;;;;5002945;28;20410;-79
2021/07/25 06:23:59;;;;;;;15.70;13.97;;;24.60;99.90;;;;;;5017473;28;20479;-79
2021/07/25 06:26:27;;;;;;;14.93;12.63;;;24.80;99.90;;;;;;5015891;28;20519;-77
2021/07/25 06:28:55;;;;;;;17.00;13.80;;;24.80;99.90;;;;;;5018816;28;20400;-80
2021/07/25 06:31:24;;;;;;;15.67;12.40;;;24.90;99.90;;;;;;5021050;28;20516;-80
2021/07/25 06:33:52;;;;;;;15.20;13.67;;;25.10;99.90;;;;;;5028267;28;20895;-78
2021/07/25 06:36:20;;;;;;;14.30;12.90;;;25.40;99.90;;;;;;5027504;28;20455;-79
2021/07/25 06:38:50;;;;;;;15.10;13.60;;;25.30;99.90;;;;;;5028723;28;20826;-78
2021/07/25 06:41:18;;;;;;;13.20;12.10;;;25.20;99.90;;;;;;5021022;28;20388;-79
2021/07/25 06:43:46;;;;;;;14.90;12.90;;;24.80;99.90;;;;;;5016599;28;20388;-78
2021/07/25 06:46:17;;;;;;;14.23;12.73;;;24.50;99.90;;;;;;5016377;28;20456;-79
2021/07/25 06:48:45;;;;;;;21.83;12.77;;;24.50;99.90;;;;;;5015159;28;20453;-78
2021/07/25 06:51:13;;;;;;;16.40;14.80;;;24.50;99.90;;;;;;5015071;28;20765;-78
2021/07/25 06:53:42;;;;;;;14.73;13.20;;;24.30;99.90;;;;;;5013472;28;20445;-78
2021/07/25 06:56:12;;;;;;;17.80;13.80;;;24.50;99.90;;;;;;5014332;28;20452;-78
2021/07/25 06:58:41;;;;;;;13.90;12.60;;;24.50;99.90;;;;;;4998662;28;20444;-78
2021/07/25 07:01:10;;;;;;;14.13;12.73;;;24.70;99.90;;;;;;5019578;28;20466;-82
2021/07/25 07:03:39;;;;;;;14.10;12.47;;;24.80;99.90;;;;;;5018453;28;20483;-81
2021/07/25 07:06:07;;;;;;;13.80;12.50;;;25.00;99.90;;;;;;5018141;28;20519;-78
2021/07/25 07:08:35;;;;;;;16.07;13.93;;;25.30;99.90;;;;;;5019733;28;20433;-79
2021/07/25 07:11:04;;;;;;;14.37;12.87;;;25.10;99.90;;;;;;5018690;28;20438;-81
2021/07/25 07:13:33;;;;;;;13.43;12.10;;;24.90;99.90;;;;;;5019455;28;20400;-79
2021/07/25 07:16:02;;;;;;;15.77;12.70;;;25.00;99.90;;;;;;5020911;28;20479;-80
2021/07/25 07:18:30;;;;;;;15.87;14.23;;;24.70;99.90;;;;;;5018760;28;20425;-81
2021/07/25 07:20:58;;;;;;;18.80;14.90;;;24.50;99.90;;;;;;5020011;28;20486;-80
2021/07/25 07:23:26;;;;;;;14.80;13.33;;;24.40;99.90;;;;;;5019643;28;20484;-81
2021/07/25 07:25:55;;;;;;;14.00;12.63;;;24.50;99.90;;;;;;5017877;28;20439;-81
2021/07/25 07:28:23;;;;;;;13.63;12.33;;;25.00;99.90;;;;;;5019285;28;20399;-78
2021/07/25 07:30:53;;;;;;;14.13;12.83;;;25.20;99.90;;;;;;5000878;28;20425;-78
2021/07/25 07:33:22;;;;;;;13.23;12.03;;;25.30;99.90;;;;;;5017059;28;20913;-78
2021/07/25 07:35:51;;;;;;;13.33;11.93;;;25.50;99.90;;;;;;5014113;28;20433;-78
2021/07/25 07:38:21;;;;;;;15.43;13.90;;;25.60;99.90;;;;;;5015752;28;20421;-78
2021/07/25 07:40:49;;;;;;;13.07;11.87;;;25.70;99.90;;;;;;5016939;28;20460;-79
2021/07/25 07:43:19;;;;;;;14.70;13.40;;;25.90;99.90;;;;;;5016489;28;20519;-80
2021/07/25 07:45:48;;;;;;;14.37;12.27;;;25.80;99.90;;;;;;5001278;28;20802;-80
2021/07/25 07:48:19;;;;;;;13.60;12.30;;;26.00;99.90;;;;;;5013738;28;20411;-79
2021/07/25 07:50:47;;;;;;;13.33;11.93;;;25.90;99.90;;;;;;5016618;28;20413;-80
2021/07/25 07:53:18;;;;;;;13.77;12.40;;;26.00;99.90;;;;;;5017817;28;20425;-78
2021/07/25 07:55:47;;;;;;;13.63;12.33;;;25.90;99.90;;;;;;5018077;28;20395;-78
2021/07/25 07:58:15;;;;;;;12.80;11.50;;;25.90;99.90;;;;;;5034208;28;20388;-80
2021/07/25 08:00:44;;;;;;;13.90;12.60;;;26.10;99.90;;;;;;5036640;28;20466;-83
2021/07/25 08:03:12;;;;;;;14.40;12.90;;;26.20;99.90;;;;;;5036876;28;20413;-81
2021/07/25 08:05:42;;;;;;;12.87;11.50;;;26.60;99.90;;;;;;5037095;28;20424;-80
2021/07/25 08:08:11;;;;;;;13.33;12.03;;;27.10;99.90;;;;;;5036230;28;20497;-81
2021/07/25 08:10:39;;;;;;;13.97;12.57;;;27.10;99.90;;;;;;5037008;28;20402;-80
2021/07/25 08:13:07;;;;;;;14.90;12.23;;;27.00;99.90;;;;;;5034624;28;20393;-79
2021/07/25 08:15:35;;;;;;;13.97;12.13;;;26.70;99.90;;;;;;5017879;28;20425;-79
2021/07/25 08:18:04;;;;;;;14.53;12.97;;;26.70;99.90;;;;;;5019917;28;20449;-80
2021/07/25 08:20:32;;;;;;;13.83;12.37;;;26.80;99.90;;;;;;5030638;28;20464;-79
2021/07/25 08:23:02;;;;;;;14.73;13.33;;;26.80;99.90;;;;;;5028753;28;20495;-79
2021/07/25 08:25:30;;;;;;;12.03;10.93;;;26.90;99.90;;;;;;5021886;28;20429;-78
2021/07/25 08:27:58;;;;;;;13.43;12.07;;;27.20;99.90;;;;;;5024955;28;20440;-79
2021/07/25 08:30:29;;;;;;;13.60;12.33;;;27.20;99.90;;;;;;5023512;28;20410;-80
2021/07/25 08:32:58;;;;;;;13.27;12.07;;;27.40;99.90;;;;;;5016637;28;20476;-78
2021/07/25 08:35:26;;;;;;;14.57;12.77;;;27.40;99.90;;;;;;5020314;28;20433;-80
2021/07/25 08:37:54;;;;;;;13.00;11.80;;;27.60;99.90;;;;;;5017089;28;20465;-79
2021/07/25 08:40:25;;;;;;;17.00;13.53;;;27.90;99.90;;;;;;5016562;28;20959;-79
2021/07/25 08:43:04;;;;;;;14.10;12.30;;;28.10;99.90;;;;;;5014123;28;20425;-80
2021/07/25 08:45:33;;;;;;;14.20;12.77;;;28.10;99.90;;;;;;5013478;28;20424;-79
2021/07/25 08:48:04;;;;;;;15.10;13.70;;;28.20;99.90;;;;;;5013445;28;20843;-79
2021/07/25 08:50:36;;;;;;;13.50;12.20;;;28.30;99.90;;;;;;5016088;28;20425;-80
2021/07/25 08:53:05;;;;;;;14.00;12.37;;;28.40;99.90;;;;;;5014083;28;20421;-79
2021/07/25 08:55:35;;;;;;;13.90;12.47;;;28.50;99.90;;;;;;5014173;28;20433;-79
2021/07/25 08:58:10;;;;;;;14.37;12.90;;;28.60;99.90;;;;;;4998751;28;20465;-78
2021/07/25 09:00:39;;;;;;;12.80;11.50;;;28.70;99.90;;;;;;5016392;28;20468;-80
2021/07/25 09:03:10;;;;;;;15.97;12.93;;;28.90;99.90;;;;;;5016094;28;20413;-80
2021/07/25 09:05:38;;;;;;;13.53;12.20;;;29.20;99.90;;;;;;5016369;28;20475;-80
2021/07/25 09:08:07;;;;;;;13.37;12.17;;;29.10;99.90;;;;;;5014998;28;20457;-80
2021/07/25 09:10:37;;;;;;;14.60;13.10;;;29.10;99.90;;;;;;5016297;28;20479;-80
2021/07/25 09:13:05;;;;;;;14.33;12.83;;;28.70;99.90;;;;;;5013989;28;20409;-79
2021/07/25 09:15:37;;;;;;;14.87;13.47;;;28.60;99.90;;;;;;5013935;28;20585;-80
2021/07/25 09:18:06;;;;;;;14.33;12.93;;;28.50;99.90;;;;;;5015952;28;20487;-80
2021/07/25 09:20:36;;;;;;;13.97;12.67;;;28.50;99.90;;;;;;5013719;28;20500;-77
2021/07/25 09:23:10;;;;;;;15.97;13.40;;;28.30;99.90;;;;;;5014118;28;20435;-79
2021/07/25 09:25:44;;;;;;;13.60;12.30;;;28.30;99.90;;;;;;5017003;28;20420;-80
2021/07/25 09:28:18;;;;;;;15.40;13.90;;;28.20;99.90;;;;;;5016084;28;20418;-80
2021/07/25 09:30:47;;;;;;;15.07;13.67;;;28.30;99.90;;;;;;5016467;28;20526;-79
2021/07/25 09:33:27;;;;;;;16.80;13.83;;;28.40;99.90;;;;;;5016166;28;20798;-80
2021/07/25 09:36:07;;;;;;;15.63;14.03;;;28.40;99.90;;;;;;5014951;28;21034;-80
2021/07/25 09:38:36;;;;;;;14.60;12.13;;;28.40;99.90;;;;;;5016084;28;20460;-80
2021/07/25 09:41:19;;;;;;;16.47;14.97;;;28.30;99.90;;;;;;5016918;28;20592;-78
2021/07/25 09:43:58;;;;;;;15.17;13.57;;;28.50;99.90;;;;;;5019849;28;20923;-80
2021/07/25 09:46:27;;;;;;;13.50;12.10;;;28.70;99.90;;;;;;5024931;28;20485;-79
2021/07/25 09:48:57;;;;;;;15.33;13.67;;;28.80;99.90;;;;;;5025264;28;20536;-80
2021/07/25 09:51:26;;;;;;;14.37;12.93;;;28.70;99.90;;;;;;5027723;28;20410;-81
2021/07/25 09:53:55;;;;;;;12.93;11.67;;;28.70;99.90;;;;;;5020873;28;20841;-80
2021/07/25 09:56:28;;;;;;;17.00;13.00;;;28.80;99.90;;;;;;5020484;28;20510;-78
2021/07/25 09:58:57;;;;;;;13.47;12.20;;;28.80;99.90;;;;;;5018521;28;20436;-80
2021/07/25 10:01:36;;;;;;;13.60;12.30;;;29.00;99.90;;;;;;5025740;28;20468;-78
2021/07/25 10:04:17;;;;;;;15.17;12.20;;;29.20;99.90;;;;;;5027199;28;20428;-78
2021/07/25 10:06:47;;;;;;;14.53;13.13;;;29.30;99.90;;;;;;5028640;28;20468;-79
2021/07/25 10:09:17;;;;;;;13.90;12.50;;;29.20;99.90;;;;;;5029866;28;20851;-78
2021/07/25 10:11:49;;;;;;;14.37;12.87;;;29.30;99.90;;;;;;5020006;28;20423;-80
2021/07/25 10:14:20;;;;;;;15.13;13.63;;;29.20;99.90;;;;;;5018716;28;20424;-79
2021/07/25 10:16:52;;;;;;;13.97;12.57;;;29.40;99.90;;;;;;5020354;28;20448;-78
2021/07/25 10:19:29;;;;;;;14.10;12.33;;;29.70;99.90;;;;;;5018192;28;20473;-79
2021/07/25 10:21:58;;;;;;;13.07;11.87;;;29.80;99.90;;;;;;5017270;28;20500;-80
2021/07/25 10:24:28;;;;;;;13.47;12.27;;;30.20;99.90;;;;;;5019711;28;20424;-80
2021/07/25 10:26:59;;;;;;;12.30;11.20;;;30.20;99.90;;;;;;5023133;28;20445;-79
2021/07/25 10:29:29;;;;;;;12.50;11.40;;;30.20;99.90;;;;;;5024258;28;20475;-81
2021/07/25 10:31:58;;;;;;;13.57;12.17;;;30.20;99.90;;;;;;5020868;28;20524;-80
2021/07/25 10:34:30;;;;;;;13.77;12.40;;;30.30;99.90;;;;;;5019286;28;20425;-79
2021/07/25 10:36:59;;;;;;;17.47;10.90;;;30.30;99.90;;;;;;5017577;28;20870;-81
2021/07/25 10:39:29;;;;;;;13.57;12.17;;;30.40;99.90;;;;;;5018583;28;20771;-78
2021/07/25 10:42:00;;;;;;;15.77;12.90;;;30.30;99.90;;;;;;5018672;28;20495;-80
2021/07/25 10:44:29;;;;;;;13.63;12.23;;;30.30;99.90;;;;;;5019049;28;20413;-80
2021/07/25 10:47:24;;;;;;;12.77;11.57;;;30.20;99.90;;;;;;4999391;28;21036;-80
2021/07/25 10:49:57;;;;;;;13.73;12.33;;;30.10;99.90;;;;;;5017017;28;20435;-79
2021/07/25 10:52:26;;;;;;;12.87;11.67;;;29.90;99.90;;;;;;5016249;28;20511;-78
2021/07/25 10:54:54;;;;;;;13.70;11.87;;;30.00;99.90;;;;;;4999378;28;20508;-79
2021/07/25 10:57:24;;;;;;;14.30;12.90;;;30.00;99.90;;;;;;5021251;28;20452;-78
2021/07/25 10:59:55;;;;;;;13.70;12.27;;;30.10;99.90;;;;;;5024315;28;20484;-79
2021/07/25 11:02:55;;;;;;;13.67;12.27;;;30.10;99.90;;;;;;5017556;28;20461;-80
2021/07/25 11:05:25;;;;;;;13.43;12.17;;;30.20;99.90;;;;;;5018889;28;20417;-81
2021/07/25 11:08:00;;;;;;;13.83;12.33;;;30.40;99.90;;;;;;5023525;23;20497;-80
2021/07/25 11:10:33;;;;;;;18.27;14.57;;;30.50;99.90;;;;;;4994662;28;20422;-81
2021/07/25 11:13:18;;;;;;;16.57;14.57;;;30.40;99.90;;;;;;4984984;28;20932;-81
2021/07/25 11:15:51;;;;;;;14.63;13.17;;;30.40;99.90;;;;;;4997037;28;20495;-81
2021/07/25 11:18:30;;;;;;;15.53;14.03;;;30.20;99.90;;;;;;5000024;28;20557;-82
2021/07/25 11:20:59;;;;;;;14.53;13.17;;;30.10;99.90;;;;;;4989290;28;20481;-79
2021/07/25 11:23:36;;;;;;;13.30;12.07;;;30.40;99.90;;;;;;4987763;28;20528;-81
2021/07/25 11:26:33;;;;;;;14.97;13.50;;;30.30;99.90;;;;;;4986958;28;20448;-81
2021/07/25 11:29:06;;;;;;;17.10;13.47;;;30.40;99.90;;;;;;5002367;28;20862;-80
2021/07/25 11:31:38;;;;;;;13.60;12.30;;;30.70;99.90;;;;;;5001308;28;20525;-81
2021/07/25 11:34:08;;;;;;;12.27;11.27;;;30.80;99.90;;;;;;5000575;28;20441;-80
2021/07/25 11:36:37;;;;;;;13.00;11.80;;;30.70;99.90;;;;;;4982609;28;20532;-80
2021/07/25 11:39:07;;;;;;;13.80;12.40;;;30.70;99.90;;;;;;5000245;28;20430;-79
2021/07/25 11:41:38;;;;;;;12.97;11.77;;;31.10;99.90;;;;;;4999725;28;20757;-81
2021/07/25 11:44:09;;;;;;;12.50;11.33;;;31.40;99.90;;;;;;5000127;28;20430;-81
2021/07/25 11:46:41;;;;;;;14.80;13.30;;;31.50;99.90;;;;;;4999216;28;20534;-80
2021/07/25 11:49:17;;;;;;;14.27;12.90;;;31.70;99.90;;;;;;4982408;28;20449;-80
2021/07/25 11:51:51;;;;;;;13.00;11.77;;;32.10;99.90;;;;;;4981967;28;20443;-82
2021/07/25 11:54:21;;;;;;;13.67;12.47;;;32.20;99.90;;;;;;4983204;28;20436;-81
2021/07/25 11:57:00;;;;;;;14.20;12.70;;;32.20;99.90;;;;;;4983355;28;20478;-81
2021/07/25 11:59:31;;;;;;;14.80;13.50;;;32.10;99.90;;;;;;5000126;28;20917;-81
2021/07/25 12:02:00;;;;;;;15.10;13.70;;;32.10;99.90;;;;;;4998791;28;20472;-81
2021/07/25 12:04:31;;;;;;;15.23;11.93;;;32.20;99.90;;;;;;4982456;28;20454;-81
2021/07/25 12:07:05;;;;;;;14.70;12.90;;;32.10;99.90;;;;;;4981044;28;20495;-81
2021/07/25 12:09:34;;;;;;;14.13;12.83;;;32.00;99.90;;;;;;4981092;28;20842;-79
2021/07/25 12:12:08;;;;;;;15.73;14.13;;;31.60;99.90;;;;;;4985891;28;20434;-81
2021/07/25 12:14:40;;;;;;;15.13;13.83;;;31.00;99.90;;;;;;4995739;28;20474;-80
2021/07/25 12:17:09;;;;;;;14.77;13.47;;;30.80;99.90;;;;;;5000465;28;20457;-81
2021/07/25 12:19:40;;;;;;;12.70;11.47;;;30.30;99.90;;;;;;4986964;28;20545;-79
2021/07/25 12:22:18;;;;;;;13.17;11.97;;;29.90;99.90;;;;;;4985300;28;20486;-80
2021/07/25 12:24:51;;;;;;;13.60;12.30;;;30.20;99.90;;;;;;4966896;28;20470;-79
2021/07/25 12:27:33;;;;;;;14.20;12.90;;;30.80;99.90;;;;;;4980457;28;20451;-80
2021/07/25 12:30:11;;;;;;;13.07;11.80;;;31.20;99.90;;;;;;4978965;28;20418;-80
2021/07/25 12:32:40;;;;;;;15.53;14.13;;;31.40;99.90;;;;;;4978282;28;20439;-80
2021/07/25 12:35:22;;;;;;;13.67;12.37;;;31.30;99.90;;;;;;4978048;28;20447;-81
2021/07/25 12:37:59;;;;;;;13.50;12.20;;;31.60;99.90;;;;;;4979496;28;20446;-81
2021/07/25 12:40:28;;;;;;;14.93;13.53;;;31.80;99.90;;;;;;4979839;28;20431;-81
2021/07/25 12:43:06;;;;;;;13.47;12.17;;;31.70;99.90;;;;;;4978318;28;20499;-81
2021/07/25 12:45:47;;;;;;;14.57;13.17;;;31.90;99.90;;;;;;4977945;28;20524;-80